Current Weather

Kenosha Rgnl

Kenosha, Wisconsin (KENW)

Report from: Wednesday, September 28, 2022 3:53 AM CDT
Current time: Wednesday, September 28, 2022 4:04 AM CDT

Nearby weather
Weather history
Weather forecast

Temperature8.3°C (46.9°F)
Wind chill5.9°C (42.5°F)
Dew point3.9°C (39.0°F)
Winds 8 kts (4.1 m/s, 9.2 mph) North-Northwest (330°)
Visibility10 mi. (16.1 km)
Clouds Sky clear
Altimeter30.35 in.Hg (1028 mB)
Relative humidity74 %
Density altitude-1,176 ft. (-358 m)
Sea-level pressure102.8 kPa (1028 mB, 30.35 in.Hg)
Remarks Fully automated report
Automated weather observing station with precipitation discriminator
Pressure rising more slowly
Flight conditions Visual Meteorological Conditions
Raw dataKENW 280853Z AUTO 33008KT 10SM CLR 08/04 A3035 RMK AO2 SLP278 T00830039 51015
An error has occurred. This application may no longer respond until reloaded. Reload 🗙